Terminal Aerodrome Forecast
Issued by NWS

Home | Current Version | Previous Version | Text Only | Print | Product List | Glossary On
Versions: 1 2 3 4 5 6 7 8 9 10 11 12 13 14 15 16 17 18 19 20 21 22 23 24 25 26 27 28 29
000
FTUS46 KMTR 270520
TAFMRY
TAF
KMRY 270520Z 2706/2806 24004KT 1/2SM FG VV002
     FM271700 29007KT 3SM HZ FU OVC003
     FM271800 29008KT 6SM HZ FU SCT020 BKN150
     FM280300 25004KT 5SM HZ FU SCT004 OVC009
     FM280400 24003KT 1/2SM FG VV002=

USA.gov is the U.S. government's official web portal to all federal, state and local government web resources and services.